Nearby METAR Reports

 

KOKB - Oceanside, California, USA
Distance from station: W 1mi, 2km
Updated: Mon, 16-May-2022 4:52am PDT
Overcast
Overcast
 Wind from SSE
Wind: SSE 3 mph , 6 km/h
Temperature: 61°F , 16°C
Dew Point: 55°F , 13°C
Humidity: 83%
Barometer: 29.92 inHg , 1013.2 hPa
Clouds: Overcast
Visibility: 7 miles , 11 km
Cloud details: Overcast 1200 ft
2022/05/16 11:52 KOKB 161152Z AUTO 16003KT 7SM OVC012 16/13 A2992 RMK AO2 SLP132 T01560128 10156 20150 56004
KNFG - Camp Pendleton, California, USA
Distance from station: N 5mi, 8km
Updated: Mon, 16-May-2022 4:52am PDT
Overcast
Overcast
 Wind from varies
Wind: varies 3 mph , 6 km/h
Temperature: 61°F , 16°C
Dew Point: 55°F , 13°C
Humidity: 83%
Barometer: 29.93 inHg , 1013.5 hPa
Clouds: Overcast
Visibility: 8 miles , 13 km
Cloud details: Overcast 1100 ft
2022/05/16 11:52 KNFG 161152Z AUTO VRB03KT 8SM OVC011 16/13 A2993 RMK AO2 SLP134 T01560128 10161 20150 58003 $
 
KCRQ - Carlsbad, California, USA
Distance from station: SSE 6mi, 10km
Updated: Mon, 16-May-2022 4:53am PDT
Overcast
Overcast
 Wind from E
Wind: E 5 mph , 7 km/h
Temperature: 57°F , 14°C
Dew Point: 54°F , 12°C
Humidity: 88%
Barometer: 29.92 inHg , 1013.2 hPa
Clouds: Overcast
Visibility: 8 miles , 13 km
Cloud details: Overcast 900 ft
2022/05/16 11:53 KCRQ 161153Z AUTO 10004KT 8SM OVC009 14/12 A2992 RMK AO2 SLP130 T01440117 10144 20139 57003
KL18 - Fallbrook, California, USA
Distance from station: NNE 10mi, 17km
Updated: Mon, 16-May-2022 4:55am PDT
Overcast
Overcast
 Wind from calm
Wind: Calm
Temperature: 55°F , 13°C
Dew Point: 54°F , 12°C
Humidity: 94%
Barometer: 29.94 inHg , 1013.9 hPa
Clouds: Overcast
Visibility: 7 miles , 11 km
Cloud details: Overcast 400 ft
2022/05/16 11:55 KL18 161155Z AUTO 00000KT 7SM OVC004 13/12 A2994 RMK AO2
 
KNKX - Miramar Nas/San, California, USA
Distance from station: SSE 26mi, 43km
Updated: Mon, 16-May-2022 3:55am PDT
Overcast
Overcast
 Wind from calm
Wind: Calm
Temperature: 57°F , 14°C
Dew Point: 54°F , 12°C
Humidity: 88%
Barometer: 29.93 inHg , 1013.5 hPa
Clouds: Overcast
Visibility: 7 miles , 11 km
Cloud details: Overcast 800 ft
2022/05/16 10:55 KNKX 161055Z 00000KT 7SM OVC008 14/12 A2993 RMK AO2 SLP132 T01390117
KF70 - Murrieta/Temecul, California, USA
Distance from station: NNE 27mi, 43km
Updated: Mon, 16-May-2022 4:55am PDT
Mist, Overcast
Mist, Overcast
 Wind from calm
Wind: Calm
Temperature: 54°F , 12°C
Dew Point: 54°F , 12°C
Humidity: 100%
Barometer: 29.94 inHg , 1013.9 hPa
Summary: Mist
Clouds: Overcast
Visibility: 2 miles , 3 km
Cloud details: Overcast 200 ft
2022/05/16 11:55 KF70 161155Z AUTO 00000KT 2SM BR OVC002 12/12 A2994 RMK AO2
 
KRNM - Ramona, California, USA
Distance from station: ESE 27mi, 43km
Updated: Mon, 16-May-2022 4:53am PDT
Fog, Overcast
Fog, Overcast
 Wind from calm
Wind: Calm
Temperature: 50°F , 10°C
Dew Point: 48°F , 9°C
Humidity: 94%
Barometer: 29.93 inHg , 1013.5 hPa
Summary: Fog
Clouds: Overcast
Visibility: 1/4 mile , 0.4 km
Cloud details: Overcast 200 ft
2022/05/16 11:53 KRNM 161153Z AUTO 00000KT 1/4SM FG VV002 10/09 A2993 RMK AO2 SLP124 T01000094 10122 20094 55002
KMYF - San Diego/Mntgmy, California, USA
Distance from station: SSE 30mi, 48km
Updated: Mon, 16-May-2022 4:53am PDT
Haze, Overcast
Haze, Overcast
 Wind from ESE
Wind: ESE 5 mph , 7 km/h
Temperature: 59°F , 15°C
Dew Point: 54°F , 12°C
Humidity: 82%
Barometer: 29.94 inHg , 1013.9 hPa
Summary: Haze
Clouds: Overcast
Visibility: 6 miles , 10 km
Cloud details: Overcast 1000 ft
2022/05/16 11:53 KMYF 161153Z AUTO 12004KT 6SM HZ OVC010 15/12 A2994 RMK AO2 SLP133 T01500117 10156 20144 51001 $
 
KSAN - San Diego, California, USA
Distance from station: SSE 34mi, 55km
Updated: Mon, 16-May-2022 4:51am PDT
Overcast
Overcast
 Wind from S
Wind: S 8 mph , 13 km/h
Temperature: 59°F , 15°C
Dew Point: 54°F , 12°C
Humidity: 82%
Barometer: 29.95 inHg , 1014.2 hPa
Clouds: Overcast
Visibility: 10 miles , 16 km
Cloud details: Overcast 1300 ft
2022/05/16 11:51 KSAN 161151Z 19007KT 10SM OVC013 15/12 A2995 RMK AO2 SLP142 T01500117 10156 20144 56001
KSEE - San Diego/Santee, California, USA
Distance from station: SE 34mi, 55km
Updated: Mon, 16-May-2022 4:55am PDT
Overcast
Overcast
 
Temperature: 57°F , 14°C
Dew Point: 52°F , 11°C
Humidity: 82%
Barometer: 29.93 inHg , 1013.5 hPa
Clouds: Overcast
Visibility: 10 miles , 16 km
Cloud details: Overcast 1100 ft
2022/05/16 11:55 KSEE 161155Z AUTO 10SM OVC011 14/11 A2993 RMK AO2
 
KNZY - North Island Nas, California, USA
Distance from station: S 36mi, 58km
Updated: Mon, 16-May-2022 4:52am PDT
Overcast
Overcast
 Wind from S
Wind: S 8 mph , 13 km/h
Temperature: 61°F , 16°C
Dew Point: 54°F , 12°C
Humidity: 77%
Barometer: 29.93 inHg , 1013.5 hPa
Clouds: Overcast
Visibility: 10 miles , 16 km
Cloud details: Overcast 1100 ft
2022/05/16 11:52 KNZY 161152Z AUTO 17007KT 10SM OVC011 16/12 A2993 RMK AO2 SLP136 7//// T01560117 10161 20150 55001
KHMT - Hemet, California, USA
Distance from station: NNE 40mi, 65km
Updated: Mon, 16-May-2022 4:55am PDT

 Wind from calm
Wind: Calm
Temperature: 50°F , 10°C
Dew Point: 50°F , 10°C
Humidity: 100%
Barometer: 29.94 inHg , 1013.9 hPa
Visibility: 10 miles , 16 km
2022/05/16 11:55 KHMT 161155Z AUTO 00000KT 10SM 10/10 A2994 RMK AO2 T0105//// 10177 20102
 
KSNA - Costa Mesa, California, USA
Distance from station: NW 44mi, 71km
Updated: Mon, 16-May-2022 4:53am PDT
Overcast
Overcast
 Wind from SSE
Wind: SSE 5 mph , 7 km/h
Temperature: 61°F , 16°C
Dew Point: 52°F , 11°C
Humidity: 72%
Barometer: 29.93 inHg , 1013.5 hPa
Clouds: Overcast
Visibility: 10 miles , 16 km
Cloud details: Overcast 1300 ft
2022/05/16 11:53 KSNA 161153Z AUTO 16004KT 10SM OVC013 16/11 A2993 RMK AO2 SLP133 T01610111 10172 20161 55001 $
KRIV - Riverside/March, California, USA
Distance from station: N 45mi, 73km
Updated: Mon, 16-May-2022 4:58am PDT
Few Clouds
Few Clouds
 Wind from calm
Wind: Calm
Temperature: 59°F , 15°C
Dew Point: 50°F , 10°C
Humidity: 72%
Barometer: 29.94 inHg , 1013.9 hPa
Clouds: Few Clouds
Visibility: 10 miles , 16 km
Cloud details: Few Clouds 25000 ft
2022/05/16 11:58 KRIV 161158Z 00000KT 10SM FEW250 15/10 A2994 RMK AO2A SLPNO ALSTG ESTMD $
 
KNRS - Imperial Beach, California, USA
Distance from station: SSE 46mi, 75km
Updated: Mon, 16-May-2022 4:53am PDT
Overcast
Overcast
 Wind from SW
Wind: SW 3 mph , 6 km/h
Temperature: 59°F , 15°C
Dew Point: 54°F , 12°C
Humidity: 82%
Barometer: 29.95 inHg , 1014.2 hPa
Clouds: Overcast
Visibility: 9 miles , 14 km
Cloud details: Overcast 1300 ft
2022/05/16 11:53 KNRS 161153Z AUTO 22003KT 9SM OVC013 15/12 A2995 RMK AO2 SLP140 T01500122 10150 20139 56002 $
KSDM - San Diego/Brown, California, USA
Distance from station: SSE 48mi, 76km
Updated: Mon, 16-May-2022 4:53am PDT
Haze, Overcast
Haze, Overcast
 Wind from calm
Wind: Calm
Temperature: 59°F , 15°C
Dew Point: 54°F , 12°C
Humidity: 82%
Barometer: 29.93 inHg , 1013.5 hPa
Summary: Haze
Clouds: Overcast
Visibility: 5 miles , 8 km
Cloud details: Overcast 1000 ft
2022/05/16 11:53 KSDM 161153Z AUTO 00000KT 5SM HZ OVC010 15/12 A2993 RMK AO2 SLP131 T01500117 10150 20139 56004
 
KAJO - Corona Muni, California, USA
Distance from station: NNW 50mi, 80km
Updated: Mon, 16-May-2022 4:56am PDT
Clear
Clear
 Wind from calm
Wind: Calm
Temperature: 54°F , 12°C
Dew Point: 54°F , 12°C
Humidity: 100%
Barometer: 29.94 inHg , 1013.9 hPa
Clouds: Clear
Visibility: 7 miles , 11 km
2022/05/16 11:56 KAJO 161156Z AUTO 00000KT 7SM CLR 12/12 A2994 RMK AO2 SLP131 7//// T01220117 10178 20122 50002